sensor_id;sensor_type;location;lat;lon;timestamp;P1;durP1;ratioP1;P2;durP2;ratioP2
1837;SDS011;918;50.796;6.772;2023-04-01T00:02:16;0.80;;;0.67;;
1837;SDS011;918;50.796;6.772;2023-04-01T00:04:41;1.70;;;0.77;;
1837;SDS011;918;50.796;6.772;2023-04-01T00:07:06;0.60;;;0.50;;
1837;SDS011;918;50.796;6.772;2023-04-01T00:09:32;1.23;;;0.80;;
1837;SDS011;918;50.796;6.772;2023-04-01T00:11:57;1.17;;;0.60;;
1837;SDS011;918;50.796;6.772;2023-04-01T00:14:23;1.70;;;0.80;;
1837;SDS011;918;50.796;6.772;2023-04-01T00:16:48;0.83;;;0.70;;
1837;SDS011;918;50.796;6.772;2023-04-01T00:19:13;0.63;;;0.40;;
1837;SDS011;918;50.796;6.772;2023-04-01T00:21:40;1.47;;;0.50;;
1837;SDS011;918;50.796;6.772;2023-04-01T00:24:05;2.70;;;0.70;;
1837;SDS011;918;50.796;6.772;2023-04-01T00:26:30;0.73;;;0.60;;
1837;SDS011;918;50.796;6.772;2023-04-01T00:28:55;1.10;;;0.50;;
1837;SDS011;918;50.796;6.772;2023-04-01T00:31:21;1.33;;;0.63;;
1837;SDS011;918;50.796;6.772;2023-04-01T00:33:46;3.20;;;0.50;;
1837;SDS011;918;50.796;6.772;2023-04-01T00:36:13;0.70;;;0.57;;
1837;SDS011;918;50.796;6.772;2023-04-01T00:38:39;1.07;;;0.60;;
1837;SDS011;918;50.796;6.772;2023-04-01T00:41:06;0.60;;;0.53;;
1837;SDS011;918;50.796;6.772;2023-04-01T00:43:31;0.70;;;0.50;;
1837;SDS011;918;50.796;6.772;2023-04-01T00:45:57;2.43;;;1.80;;
1837;SDS011;918;50.796;6.772;2023-04-01T00:48:23;0.97;;;0.50;;
1837;SDS011;918;50.796;6.772;2023-04-01T00:53:26;1.77;;;0.50;;
1837;SDS011;918;50.796;6.772;2023-04-01T00:58:51;1.57;;;0.70;;
1837;SDS011;918;50.796;6.772;2023-04-01T01:01:21;0.93;;;0.50;;
1837;SDS011;918;50.796;6.772;2023-04-01T01:03:48;0.60;;;0.43;;
1837;SDS011;918;50.796;6.772;2023-04-01T01:06:30;0.47;;;0.43;;
1837;SDS011;918;50.796;6.772;2023-04-01T01:09:21;1.37;;;0.40;;
1837;SDS011;918;50.796;6.772;2023-04-01T01:14:34;1.03;;;0.77;;
1837;SDS011;918;50.796;6.772;2023-04-01T01:17:12;0.70;;;0.50;;
1837;SDS011;918;50.796;6.772;2023-04-01T01:19:51;2.30;;;0.50;;
1837;SDS011;918;50.796;6.772;2023-04-01T01:33:46;0.37;;;0.30;;
1837;SDS011;918;50.796;6.772;2023-04-01T01:36:18;0.70;;;0.40;;
1837;SDS011;918;50.796;6.772;2023-04-01T01:38:45;1.30;;;0.60;;
1837;SDS011;918;50.796;6.772;2023-04-01T01:41:13;0.60;;;0.60;;
1837;SDS011;918;50.796;6.772;2023-04-01T01:43:41;1.27;;;0.70;;
1837;SDS011;918;50.796;6.772;2023-04-01T01:46:12;1.03;;;0.50;;
1837;SDS011;918;50.796;6.772;2023-04-01T01:48:40;0.40;;;0.40;;
1837;SDS011;918;50.796;6.772;2023-04-01T01:51:07;1.07;;;0.50;;
1837;SDS011;918;50.796;6.772;2023-04-01T01:53:33;0.67;;;0.50;;
1837;SDS011;918;50.796;6.772;2023-04-01T01:55:58;0.40;;;0.40;;
1837;SDS011;918;50.796;6.772;2023-04-01T02:00:56;0.47;;;0.43;;
1837;SDS011;918;50.796;6.772;2023-04-01T02:03:24;1.53;;;0.60;;
1837;SDS011;918;50.796;6.772;2023-04-01T02:05:52;0.93;;;0.50;;
1837;SDS011;918;50.796;6.772;2023-04-01T02:08:23;0.77;;;0.50;;
1837;SDS011;918;50.796;6.772;2023-04-01T02:10:59;0.40;;;0.40;;
1837;SDS011;918;50.796;6.772;2023-04-01T02:13:29;0.40;;;0.30;;
1837;SDS011;918;50.796;6.772;2023-04-01T02:16:31;0.47;;;0.43;;
1837;SDS011;918;50.796;6.772;2023-04-01T02:18:55;0.53;;;0.30;;
1837;SDS011;918;50.796;6.772;2023-04-01T02:21:21;1.03;;;0.43;;
1837;SDS011;918;50.796;6.772;2023-04-01T02:23:48;1.10;;;0.97;;
1837;SDS011;918;50.796;6.772;2023-04-01T02:26:15;1.70;;;0.50;;
1837;SDS011;918;50.796;6.772;2023-04-01T02:28:41;0.63;;;0.50;;
1837;SDS011;918;50.796;6.772;2023-04-01T02:31:11;0.30;;;0.30;;
1837;SDS011;918;50.796;6.772;2023-04-01T02:33:38;0.50;;;0.47;;
1837;SDS011;918;50.796;6.772;2023-04-01T02:36:04;0.63;;;0.40;;
1837;SDS011;918;50.796;6.772;2023-04-01T02:38:30;0.80;;;0.40;;
1837;SDS011;918;50.796;6.772;2023-04-01T02:40:59;1.67;;;0.50;;
1837;SDS011;918;50.796;6.772;2023-04-01T02:43:25;0.77;;;0.40;;
1837;SDS011;918;50.796;6.772;2023-04-01T02:45:51;0.40;;;0.40;;
1837;SDS011;918;50.796;6.772;2023-04-01T02:48:16;0.70;;;0.37;;
1837;SDS011;918;50.796;6.772;2023-04-01T02:50:42;1.03;;;0.50;;
1837;SDS011;918;50.796;6.772;2023-04-01T02:53:07;1.43;;;0.40;;
1837;SDS011;918;50.796;6.772;2023-04-01T02:55:33;0.50;;;0.40;;
1837;SDS011;918;50.796;6.772;2023-04-01T02:57:58;0.60;;;0.40;;
1837;SDS011;918;50.796;6.772;2023-04-01T03:00:24;1.93;;;0.40;;
1837;SDS011;918;50.796;6.772;2023-04-01T03:02:50;0.50;;;0.30;;
1837;SDS011;918;50.796;6.772;2023-04-01T03:05:15;0.40;;;0.40;;
1837;SDS011;918;50.796;6.772;2023-04-01T03:07:40;0.87;;;0.40;;
1837;SDS011;918;50.796;6.772;2023-04-01T03:10:06;0.67;;;0.40;;
1837;SDS011;918;50.796;6.772;2023-04-01T03:12:32;0.57;;;0.30;;
1837;SDS011;918;50.796;6.772;2023-04-01T03:14:57;0.80;;;0.40;;
1837;SDS011;918;50.796;6.772;2023-04-01T03:17:23;0.50;;;0.33;;
1837;SDS011;918;50.796;6.772;2023-04-01T03:19:48;0.60;;;0.40;;
1837;SDS011;918;50.796;6.772;2023-04-01T03:22:14;0.60;;;0.30;;
1837;SDS011;918;50.796;6.772;2023-04-01T03:24:39;1.03;;;0.40;;
1837;SDS011;918;50.796;6.772;2023-04-01T03:27:05;0.60;;;0.40;;
1837;SDS011;918;50.796;6.772;2023-04-01T03:29:30;0.50;;;0.40;;
1837;SDS011;918;50.796;6.772;2023-04-01T03:31:55;1.20;;;0.40;;
1837;SDS011;918;50.796;6.772;2023-04-01T03:34:22;0.63;;;0.47;;
1837;SDS011;918;50.796;6.772;2023-04-01T03:36:48;1.40;;;0.80;;
1837;SDS011;918;50.796;6.772;2023-04-01T03:39:13;0.50;;;0.40;;
1837;SDS011;918;50.796;6.772;2023-04-01T03:41:39;0.40;;;0.40;;
1837;SDS011;918;50.796;6.772;2023-04-01T03:44:04;0.40;;;0.30;;
1837;SDS011;918;50.796;6.772;2023-04-01T03:46:29;0.40;;;0.30;;
1837;SDS011;918;50.796;6.772;2023-04-01T03:48:54;0.40;;;0.30;;
1837;SDS011;918;50.796;6.772;2023-04-01T03:51:20;0.57;;;0.53;;
1837;SDS011;918;50.796;6.772;2023-04-01T03:53:45;0.37;;;0.33;;
1837;SDS011;918;50.796;6.772;2023-04-01T03:56:10;0.30;;;0.30;;
1837;SDS011;918;50.796;6.772;2023-04-01T03:58:36;0.50;;;0.30;;
1837;SDS011;918;50.796;6.772;2023-04-01T04:01:01;0.30;;;0.30;;
1837;SDS011;918;50.796;6.772;2023-04-01T04:03:27;0.63;;;0.40;;
1837;SDS011;918;50.796;6.772;2023-04-01T04:05:53;0.40;;;0.40;;
1837;SDS011;918;50.796;6.772;2023-04-01T04:08:18;0.40;;;0.40;;
1837;SDS011;918;50.796;6.772;2023-04-01T04:10:43;1.33;;;0.50;;
1837;SDS011;918;50.796;6.772;2023-04-01T04:13:09;0.43;;;0.33;;
1837;SDS011;918;50.796;6.772;2023-04-01T04:15:34;0.77;;;0.57;;
1837;SDS011;918;50.796;6.772;2023-04-01T04:18:00;0.60;;;0.40;;
1837;SDS011;918;50.796;6.772;2023-04-01T04:20:25;0.97;;;0.87;;
1837;SDS011;918;50.796;6.772;2023-04-01T04:22:50;0.97;;;0.87;;
1837;SDS011;918;50.796;6.772;2023-04-01T04:25:15;0.60;;;0.37;;
1837;SDS011;918;50.796;6.772;2023-04-01T04:27:41;0.30;;;0.30;;
1837;SDS011;918;50.796;6.772;2023-04-01T04:30:06;0.40;;;0.40;;
1837;SDS011;918;50.796;6.772;2023-04-01T04:32:32;0.47;;;0.47;;
1837;SDS011;918;50.796;6.772;2023-04-01T04:34:58;0.50;;;0.50;;
1837;SDS011;918;50.796;6.772;2023-04-01T04:37:23;0.40;;;0.40;;
1837;SDS011;918;50.796;6.772;2023-04-01T04:39:48;0.40;;;0.40;;
1837;SDS011;918;50.796;6.772;2023-04-01T04:42:13;0.77;;;0.40;;
1837;SDS011;918;50.796;6.772;2023-04-01T04:44:39;0.40;;;0.40;;
1837;SDS011;918;50.796;6.772;2023-04-01T04:47:04;0.83;;;0.50;;
1837;SDS011;918;50.796;6.772;2023-04-01T04:49:30;0.50;;;0.40;;
1837;SDS011;918;50.796;6.772;2023-04-01T04:51:55;0.50;;;0.50;;
1837;SDS011;918;50.796;6.772;2023-04-01T04:54:21;0.40;;;0.30;;
1837;SDS011;918;50.796;6.772;2023-04-01T04:56:46;4.53;;;0.50;;
1837;SDS011;918;50.796;6.772;2023-04-01T04:59:11;0.90;;;0.60;;
1837;SDS011;918;50.796;6.772;2023-04-01T05:01:37;1.70;;;0.57;;
1837;SDS011;918;50.796;6.772;2023-04-01T05:04:03;0.77;;;0.43;;
1837;SDS011;918;50.796;6.772;2023-04-01T05:06:28;0.40;;;0.40;;
1837;SDS011;918;50.796;6.772;2023-04-01T05:08:54;0.40;;;0.40;;
1837;SDS011;918;50.796;6.772;2023-04-01T05:11:20;0.70;;;0.50;;
1837;SDS011;918;50.796;6.772;2023-04-01T05:13:46;0.40;;;0.40;;
1837;SDS011;918;50.796;6.772;2023-04-01T05:16:12;1.00;;;0.40;;
1837;SDS011;918;50.796;6.772;2023-04-01T05:18:41;0.60;;;0.50;;
1837;SDS011;918;50.796;6.772;2023-04-01T05:21:07;0.33;;;0.33;;
1837;SDS011;918;50.796;6.772;2023-04-01T05:23:33;0.70;;;0.70;;
1837;SDS011;918;50.796;6.772;2023-04-01T05:26:02;0.50;;;0.50;;
1837;SDS011;918;50.796;6.772;2023-04-01T05:28:29;2.10;;;0.60;;
1837;SDS011;918;50.796;6.772;2023-04-01T05:30:54;1.40;;;0.60;;
1837;SDS011;918;50.796;6.772;2023-04-01T05:33:19;0.50;;;0.40;;
1837;SDS011;918;50.796;6.772;2023-04-01T05:35:44;0.40;;;0.30;;
1837;SDS011;918;50.796;6.772;2023-04-01T05:38:10;0.73;;;0.40;;
1837;SDS011;918;50.796;6.772;2023-04-01T05:40:35;0.80;;;0.70;;
1837;SDS011;918;50.796;6.772;2023-04-01T05:43:00;0.40;;;0.40;;
1837;SDS011;918;50.796;6.772;2023-04-01T05:45:26;0.50;;;0.50;;
1837;SDS011;918;50.796;6.772;2023-04-01T05:47:51;0.40;;;0.40;;
1837;SDS011;918;50.796;6.772;2023-04-01T05:50:17;0.97;;;0.57;;
1837;SDS011;918;50.796;6.772;2023-04-01T05:52:42;0.40;;;0.40;;
1837;SDS011;918;50.796;6.772;2023-04-01T05:55:07;0.40;;;0.40;;
1837;SDS011;918;50.796;6.772;2023-04-01T05:57:33;1.80;;;0.80;;
1837;SDS011;918;50.796;6.772;2023-04-01T06:00:00;1.37;;;1.17;;
1837;SDS011;918;50.796;6.772;2023-04-01T06:02:25;2.20;;;1.77;;
1837;SDS011;918;50.796;6.772;2023-04-01T06:04:53;0.73;;;0.73;;
1837;SDS011;918;50.796;6.772;2023-04-01T06:07:27;0.73;;;0.60;;
1837;SDS011;918;50.796;6.772;2023-04-01T06:09:53;0.67;;;0.60;;
1837;SDS011;918;50.796;6.772;2023-04-01T06:12:31;0.70;;;0.50;;
1837;SDS011;918;50.796;6.772;2023-04-01T06:20:22;0.60;;;0.60;;
1837;SDS011;918;50.796;6.772;2023-04-01T06:25:40;0.80;;;0.80;;
1837;SDS011;918;50.796;6.772;2023-04-01T06:30:49;1.37;;;1.03;;
1837;SDS011;918;50.796;6.772;2023-04-01T06:33:27;1.23;;;0.80;;
1837;SDS011;918;50.796;6.772;2023-04-01T06:41:30;1.07;;;1.03;;
1837;SDS011;918;50.796;6.772;2023-04-01T06:51:59;0.87;;;0.87;;
1837;SDS011;918;50.796;6.772;2023-04-01T06:54:52;0.73;;;0.73;;
1837;SDS011;918;50.796;6.772;2023-04-01T06:57:23;1.30;;;1.20;;
1837;SDS011;918;50.796;6.772;2023-04-01T06:59:52;1.30;;;0.97;;
1837;SDS011;918;50.796;6.772;2023-04-01T07:04:46;3.20;;;1.10;;
1837;SDS011;918;50.796;6.772;2023-04-01T07:07:24;0.90;;;0.90;;
1837;SDS011;918;50.796;6.772;2023-04-01T07:09:55;0.87;;;0.87;;
1837;SDS011;918;50.796;6.772;2023-04-01T07:15:04;1.07;;;0.70;;
1837;SDS011;918;50.796;6.772;2023-04-01T07:17:38;0.80;;;0.70;;
1837;SDS011;918;50.796;6.772;2023-04-01T07:22:43;1.03;;;0.70;;
1837;SDS011;918;50.796;6.772;2023-04-01T07:25:17;0.80;;;0.80;;
1837;SDS011;918;50.796;6.772;2023-04-01T07:27:45;1.23;;;0.90;;
1837;SDS011;918;50.796;6.772;2023-04-01T07:30:18;1.53;;;1.43;;
1837;SDS011;918;50.796;6.772;2023-04-01T07:32:56;1.43;;;1.20;;
1837;SDS011;918;50.796;6.772;2023-04-01T07:35:38;1.00;;;1.00;;
1837;SDS011;918;50.796;6.772;2023-04-01T07:49:07;1.27;;;1.17;;
1837;SDS011;918;50.796;6.772;2023-04-01T07:51:40;0.70;;;0.70;;
1837;SDS011;918;50.796;6.772;2023-04-01T07:59:50;1.20;;;0.73;;
1837;SDS011;918;50.796;6.772;2023-04-01T08:08:02;0.70;;;0.70;;
1837;SDS011;918;50.796;6.772;2023-04-01T08:13:41;0.57;;;0.47;;
1837;SDS011;918;50.796;6.772;2023-04-01T08:21:37;1.20;;;1.10;;
1837;SDS011;918;50.796;6.772;2023-04-01T08:24:07;1.03;;;1.00;;
1837;SDS011;918;50.796;6.772;2023-04-01T08:26:53;0.70;;;0.70;;
1837;SDS011;918;50.796;6.772;2023-04-01T08:33:03;1.40;;;0.87;;
1837;SDS011;918;50.796;6.772;2023-04-01T08:37:49;0.87;;;0.87;;
1837;SDS011;918;50.796;6.772;2023-04-01T08:43:05;1.23;;;0.90;;
1837;SDS011;918;50.796;6.772;2023-04-01T08:58:57;1.70;;;1.10;;
1837;SDS011;918;50.796;6.772;2023-04-01T09:04:42;0.80;;;0.80;;
1837;SDS011;918;50.796;6.772;2023-04-01T09:10:33;0.90;;;0.90;;
1837;SDS011;918;50.796;6.772;2023-04-01T09:24:51;0.50;;;0.50;;
1837;SDS011;918;50.796;6.772;2023-04-01T09:27:51;1.37;;;0.80;;
1837;SDS011;918;50.796;6.772;2023-04-01T09:31:09;0.63;;;0.40;;
1837;SDS011;918;50.796;6.772;2023-04-01T09:34:03;0.60;;;0.60;;
1837;SDS011;918;50.796;6.772;2023-04-01T09:39:19;0.80;;;0.80;;
1837;SDS011;918;50.796;6.772;2023-04-01T09:44:35;2.30;;;0.80;;
1837;SDS011;918;50.796;6.772;2023-04-01T09:52:29;0.70;;;0.70;;
1837;SDS011;918;50.796;6.772;2023-04-01T09:57:36;0.60;;;0.60;;
1837;SDS011;918;50.796;6.772;2023-04-01T10:00:27;0.60;;;0.60;;
1837;SDS011;918;50.796;6.772;2023-04-01T10:16:49;0.70;;;0.70;;
1837;SDS011;918;50.796;6.772;2023-04-01T10:22:46;1.10;;;1.00;;
1837;SDS011;918;50.796;6.772;2023-04-01T10:25:36;0.90;;;0.90;;
1837;SDS011;918;50.796;6.772;2023-04-01T10:36:53;1.23;;;1.20;;
1837;SDS011;918;50.796;6.772;2023-04-01T10:56:01;1.80;;;1.70;;
1837;SDS011;918;50.796;6.772;2023-04-01T11:13:30;1.00;;;0.63;;
1837;SDS011;918;50.796;6.772;2023-04-01T11:50:18;1.10;;;1.10;;
1837;SDS011;918;50.796;6.772;2023-04-01T11:52:52;1.13;;;1.00;;
1837;SDS011;918;50.796;6.772;2023-04-01T11:58:34;1.37;;;1.00;;
1837;SDS011;918;50.796;6.772;2023-04-01T12:01:29;0.90;;;0.90;;
1837;SDS011;918;50.796;6.772;2023-04-01T12:04:24;1.00;;;0.90;;
1837;SDS011;918;50.796;6.772;2023-04-01T12:09:56;1.37;;;0.90;;
1837;SDS011;918;50.796;6.772;2023-04-01T12:12:54;1.47;;;0.90;;
1837;SDS011;918;50.796;6.772;2023-04-01T12:15:43;0.90;;;0.80;;
1837;SDS011;918;50.796;6.772;2023-04-01T12:21:13;1.07;;;0.70;;
1837;SDS011;918;50.796;6.772;2023-04-01T12:24:25;0.70;;;0.70;;
1837;SDS011;918;50.796;6.772;2023-04-01T12:29:41;0.87;;;0.87;;
1837;SDS011;918;50.796;6.772;2023-04-01T12:32:23;0.80;;;0.70;;
1837;SDS011;918;50.796;6.772;2023-04-01T12:37:49;0.80;;;0.70;;
1837;SDS011;918;50.796;6.772;2023-04-01T12:43:14;1.33;;;0.80;;
1837;SDS011;918;50.796;6.772;2023-04-01T12:57:08;1.00;;;1.00;;
1837;SDS011;918;50.796;6.772;2023-04-01T12:59:48;0.90;;;0.90;;
1837;SDS011;918;50.796;6.772;2023-04-01T13:16:24;0.63;;;0.63;;
1837;SDS011;918;50.796;6.772;2023-04-01T13:19:00;0.60;;;0.60;;
1837;SDS011;918;50.796;6.772;2023-04-01T13:27:43;0.70;;;0.70;;
1837;SDS011;918;50.796;6.772;2023-04-01T13:44:32;2.70;;;1.73;;
1837;SDS011;918;50.796;6.772;2023-04-01T13:50:01;0.87;;;0.87;;
1837;SDS011;918;50.796;6.772;2023-04-01T14:00:54;1.13;;;1.13;;
1837;SDS011;918;50.796;6.772;2023-04-01T14:05:53;1.33;;;1.23;;
1837;SDS011;918;50.796;6.772;2023-04-01T14:08:36;1.10;;;1.10;;
1837;SDS011;918;50.796;6.772;2023-04-01T14:11:15;1.57;;;1.10;;
1837;SDS011;918;50.796;6.772;2023-04-01T14:16:51;1.27;;;1.00;;
1837;SDS011;918;50.796;6.772;2023-04-01T14:19:29;0.80;;;0.80;;
1837;SDS011;918;50.796;6.772;2023-04-01T14:27:26;0.80;;;0.80;;
1837;SDS011;918;50.796;6.772;2023-04-01T14:30:07;0.50;;;0.50;;
1837;SDS011;918;50.796;6.772;2023-04-01T14:32:46;0.90;;;0.90;;
1837;SDS011;918;50.796;6.772;2023-04-01T14:35:23;0.90;;;0.90;;
1837;SDS011;918;50.796;6.772;2023-04-01T14:46:34;1.13;;;1.00;;
1837;SDS011;918;50.796;6.772;2023-04-01T14:49:22;1.40;;;1.03;;
1837;SDS011;918;50.796;6.772;2023-04-01T14:51:49;1.03;;;1.03;;
1837;SDS011;918;50.796;6.772;2023-04-01T14:54:21;0.97;;;0.97;;
1837;SDS011;918;50.796;6.772;2023-04-01T14:57:13;1.17;;;0.90;;
1837;SDS011;918;50.796;6.772;2023-04-01T14:59:46;1.03;;;1.03;;
1837;SDS011;918;50.796;6.772;2023-04-01T15:02:28;1.23;;;1.00;;
1837;SDS011;918;50.796;6.772;2023-04-01T15:05:01;0.93;;;0.93;;
1837;SDS011;918;50.796;6.772;2023-04-01T15:13:35;1.27;;;1.20;;
1837;SDS011;918;50.796;6.772;2023-04-01T15:16:20;1.37;;;1.30;;
1837;SDS011;918;50.796;6.772;2023-04-01T15:24:41;0.73;;;0.73;;
1837;SDS011;918;50.796;6.772;2023-04-01T15:27:21;1.40;;;1.30;;
1837;SDS011;918;50.796;6.772;2023-04-01T15:32:54;1.20;;;1.20;;
1837;SDS011;918;50.796;6.772;2023-04-01T15:37:55;1.40;;;1.30;;
1837;SDS011;918;50.796;6.772;2023-04-01T15:40:23;0.90;;;0.90;;
1837;SDS011;918;50.796;6.772;2023-04-01T15:48:13;1.50;;;1.40;;
1837;SDS011;918;50.796;6.772;2023-04-01T15:50:54;1.53;;;1.43;;
1837;SDS011;918;50.796;6.772;2023-04-01T15:53:40;1.60;;;1.50;;
1837;SDS011;918;50.796;6.772;2023-04-01T16:04:24;1.80;;;1.70;;
1837;SDS011;918;50.796;6.772;2023-04-01T16:15:24;1.20;;;1.10;;
1837;SDS011;918;50.796;6.772;2023-04-01T16:20:54;1.00;;;1.00;;
1837;SDS011;918;50.796;6.772;2023-04-01T16:23:24;1.20;;;1.10;;
1837;SDS011;918;50.796;6.772;2023-04-01T16:26:13;1.30;;;1.20;;
1837;SDS011;918;50.796;6.772;2023-04-01T16:28:57;0.90;;;0.90;;
1837;SDS011;918;50.796;6.772;2023-04-01T16:31:37;0.97;;;0.97;;
1837;SDS011;918;50.796;6.772;2023-04-01T16:34:16;0.80;;;0.80;;
1837;SDS011;918;50.796;6.772;2023-04-01T16:36:46;0.90;;;0.90;;
1837;SDS011;918;50.796;6.772;2023-04-01T16:44:31;0.90;;;0.90;;
1837;SDS011;918;50.796;6.772;2023-04-01T16:47:12;1.03;;;0.83;;
1837;SDS011;918;50.796;6.772;2023-04-01T16:49:41;1.07;;;0.97;;
1837;SDS011;918;50.796;6.772;2023-04-01T16:54:42;1.47;;;1.37;;
1837;SDS011;918;50.796;6.772;2023-04-01T16:59:44;1.70;;;1.60;;
1837;SDS011;918;50.796;6.772;2023-04-01T17:02:16;2.50;;;2.30;;
1837;SDS011;918;50.796;6.772;2023-04-01T17:04:44;1.63;;;1.53;;
1837;SDS011;918;50.796;6.772;2023-04-01T17:10:02;2.30;;;1.20;;
1837;SDS011;918;50.796;6.772;2023-04-01T17:13:03;2.00;;;1.90;;
1837;SDS011;918;50.796;6.772;2023-04-01T17:15:46;2.20;;;2.03;;
1837;SDS011;918;50.796;6.772;2023-04-01T17:20:56;2.50;;;2.23;;
1837;SDS011;918;50.796;6.772;2023-04-01T17:23:29;2.47;;;2.27;;
1837;SDS011;918;50.796;6.772;2023-04-01T17:29:00;2.03;;;1.93;;
1837;SDS011;918;50.796;6.772;2023-04-01T17:37:19;2.77;;;2.57;;
1837;SDS011;918;50.796;6.772;2023-04-01T17:39:59;2.03;;;1.93;;
1837;SDS011;918;50.796;6.772;2023-04-01T17:48:38;2.27;;;1.93;;
1837;SDS011;918;50.796;6.772;2023-04-01T17:51:14;2.10;;;2.00;;
1837;SDS011;918;50.796;6.772;2023-04-01T18:02:13;2.50;;;2.40;;
1837;SDS011;918;50.796;6.772;2023-04-01T18:04:52;2.50;;;2.40;;
1837;SDS011;918;50.796;6.772;2023-04-01T18:10:08;2.17;;;2.07;;
1837;SDS011;918;50.796;6.772;2023-04-01T18:18:43;2.53;;;2.33;;
1837;SDS011;918;50.796;6.772;2023-04-01T18:21:32;2.60;;;2.40;;
1837;SDS011;918;50.796;6.772;2023-04-01T18:26:44;2.43;;;2.20;;
1837;SDS011;918;50.796;6.772;2023-04-01T18:31:48;2.83;;;2.47;;
1837;SDS011;918;50.796;6.772;2023-04-01T18:34:26;2.90;;;2.70;;
1837;SDS011;918;50.796;6.772;2023-04-01T18:37:31;2.80;;;2.60;;
1837;SDS011;918;50.796;6.772;2023-04-01T18:40:02;2.53;;;2.43;;
1837;SDS011;918;50.796;6.772;2023-04-01T18:42:46;2.50;;;2.40;;
1837;SDS011;918;50.796;6.772;2023-04-01T18:45:21;2.57;;;2.37;;
1837;SDS011;918;50.796;6.772;2023-04-01T18:50:56;2.50;;;2.40;;
1837;SDS011;918;50.796;6.772;2023-04-01T18:55:57;2.87;;;2.70;;
1837;SDS011;918;50.796;6.772;2023-04-01T19:06:46;3.20;;;3.00;;
1837;SDS011;918;50.796;6.772;2023-04-01T19:09:25;3.30;;;3.10;;
1837;SDS011;918;50.796;6.772;2023-04-01T19:20:37;3.37;;;3.10;;
1837;SDS011;918;50.796;6.772;2023-04-01T19:26:03;4.33;;;3.93;;
1837;SDS011;918;50.796;6.772;2023-04-01T19:28:56;4.30;;;3.90;;
1837;SDS011;918;50.796;6.772;2023-04-01T19:34:25;4.63;;;4.23;;
1837;SDS011;918;50.796;6.772;2023-04-01T19:37:04;4.13;;;3.83;;
1837;SDS011;918;50.796;6.772;2023-04-01T19:39:48;4.00;;;3.80;;
1837;SDS011;918;50.796;6.772;2023-04-01T19:48:05;3.77;;;3.20;;
1837;SDS011;918;50.796;6.772;2023-04-01T19:50:40;3.77;;;3.57;;
1837;SDS011;918;50.796;6.772;2023-04-01T19:58:45;4.20;;;2.87;;
1837;SDS011;918;50.796;6.772;2023-04-01T20:01:23;2.57;;;2.47;;
1837;SDS011;918;50.796;6.772;2023-04-01T20:04:04;3.20;;;3.00;;
1837;SDS011;918;50.796;6.772;2023-04-01T20:06:44;3.17;;;2.97;;
1837;SDS011;918;50.796;6.772;2023-04-01T20:09:35;2.50;;;2.30;;
1837;SDS011;918;50.796;6.772;2023-04-01T20:12:21;3.00;;;2.40;;
1837;SDS011;918;50.796;6.772;2023-04-01T20:15:20;2.23;;;2.00;;
1837;SDS011;918;50.796;6.772;2023-04-01T20:18:04;1.70;;;1.60;;
1837;SDS011;918;50.796;6.772;2023-04-01T20:20:38;1.80;;;1.70;;
1837;SDS011;918;50.796;6.772;2023-04-01T20:23:30;1.50;;;1.40;;
1837;SDS011;918;50.796;6.772;2023-04-01T20:26:11;1.80;;;1.70;;
1837;SDS011;918;50.796;6.772;2023-04-01T20:31:30;1.80;;;1.70;;
1837;SDS011;918;50.796;6.772;2023-04-01T20:34:33;1.60;;;1.50;;
1837;SDS011;918;50.796;6.772;2023-04-01T20:37:16;1.20;;;1.20;;
1837;SDS011;918;50.796;6.772;2023-04-01T20:39:52;1.77;;;1.63;;
1837;SDS011;918;50.796;6.772;2023-04-01T20:51:02;2.07;;;1.97;;
1837;SDS011;918;50.796;6.772;2023-04-01T20:53:51;2.57;;;2.37;;
1837;SDS011;918;50.796;6.772;2023-04-01T20:58:55;2.03;;;1.93;;
1837;SDS011;918;50.796;6.772;2023-04-01T21:01:40;2.20;;;2.10;;
1837;SDS011;918;50.796;6.772;2023-04-01T21:04:10;2.20;;;2.10;;
1837;SDS011;918;50.796;6.772;2023-04-01T21:12:20;2.13;;;1.93;;
1837;SDS011;918;50.796;6.772;2023-04-01T21:20:30;1.70;;;1.60;;
1837;SDS011;918;50.796;6.772;2023-04-01T21:25:55;3.30;;;3.00;;
1837;SDS011;918;50.796;6.772;2023-04-01T21:31:48;2.57;;;2.47;;
1837;SDS011;918;50.796;6.772;2023-04-01T21:37:18;2.30;;;2.10;;
1837;SDS011;918;50.796;6.772;2023-04-01T21:42:49;2.50;;;2.30;;
1837;SDS011;918;50.796;6.772;2023-04-01T21:45:29;2.80;;;2.60;;
1837;SDS011;918;50.796;6.772;2023-04-01T21:48:09;2.80;;;2.60;;
1837;SDS011;918;50.796;6.772;2023-04-01T21:50:41;2.50;;;2.30;;
1837;SDS011;918;50.796;6.772;2023-04-01T21:58:59;1.80;;;1.70;;
1837;SDS011;918;50.796;6.772;2023-04-01T22:01:49;1.60;;;1.50;;
1837;SDS011;918;50.796;6.772;2023-04-01T22:07:17;2.43;;;2.27;;
1837;SDS011;918;50.796;6.772;2023-04-01T22:12:47;2.07;;;1.97;;
1837;SDS011;918;50.796;6.772;2023-04-01T22:18:13;1.80;;;1.70;;
1837;SDS011;918;50.796;6.772;2023-04-01T22:20:54;3.40;;;2.00;;
1837;SDS011;918;50.796;6.772;2023-04-01T22:26:41;2.30;;;2.20;;
1837;SDS011;918;50.796;6.772;2023-04-01T22:29:17;2.03;;;1.93;;
1837;SDS011;918;50.796;6.772;2023-04-01T22:31:49;2.53;;;2.43;;
1837;SDS011;918;50.796;6.772;2023-04-01T22:34:28;4.03;;;3.73;;
1837;SDS011;918;50.796;6.772;2023-04-01T22:39:50;4.60;;;4.30;;
1837;SDS011;918;50.796;6.772;2023-04-01T22:42:27;3.77;;;3.47;;
1837;SDS011;918;50.796;6.772;2023-04-01T22:45:10;5.23;;;4.80;;
1837;SDS011;918;50.796;6.772;2023-04-01T22:48:05;4.30;;;3.90;;
1837;SDS011;918;50.796;6.772;2023-04-01T22:50:35;3.47;;;3.27;;
1837;SDS011;918;50.796;6.772;2023-04-01T22:55:43;6.30;;;5.80;;
1837;SDS011;918;50.796;6.772;2023-04-01T22:58:13;7.97;;;7.27;;
1837;SDS011;918;50.796;6.772;2023-04-01T23:00:45;7.77;;;7.17;;
1837;SDS011;918;50.796;6.772;2023-04-01T23:05:50;8.17;;;7.67;;
1837;SDS011;918;50.796;6.772;2023-04-01T23:16:46;9.17;;;8.47;;
1837;SDS011;918;50.796;6.772;2023-04-01T23:24:40;7.93;;;7.27;;
1837;SDS011;918;50.796;6.772;2023-04-01T23:27:17;7.50;;;7.00;;
1837;SDS011;918;50.796;6.772;2023-04-01T23:29:46;5.93;;;5.53;;
1837;SDS011;918;50.796;6.772;2023-04-01T23:32:32;5.90;;;5.50;;
1837;SDS011;918;50.796;6.772;2023-04-01T23:34:57;6.13;;;5.73;;
1837;SDS011;918;50.796;6.772;2023-04-01T23:37:24;6.30;;;5.90;;
1837;SDS011;918;50.796;6.772;2023-04-01T23:39:53;5.70;;;5.30;;
1837;SDS011;918;50.796;6.772;2023-04-01T23:42:28;5.30;;;4.93;;
1837;SDS011;918;50.796;6.772;2023-04-01T23:44:59;5.27;;;4.87;;
1837;SDS011;918;50.796;6.772;2023-04-01T23:47:34;5.07;;;4.77;;
1837;SDS011;918;50.796;6.772;2023-04-01T23:50:06;5.60;;;5.20;;
1837;SDS011;918;50.796;6.772;2023-04-01T23:52:36;5.73;;;5.27;;
1837;SDS011;918;50.796;6.772;2023-04-01T23:55:13;6.60;;;6.20;;
1837;SDS011;918;50.796;6.772;2023-04-01T23:57:41;6.77;;;6.37;;
